Time;durP1;ratioP1;P1;durP2;ratioP2;P2;SDS_P1;SDS_P2;PMS_P1;PMS_P2;Temp;Humidity;BMP_temperature;BMP_pressure;BME280_temperature;BME280_humidity;BME280_pressure;Samples;Min_cycle;Max_cycle;Signal;HPM_P1;HPM_P2
2023/04/11 00:01:31;;;;;;;;;;;;;;;17.38;nan;101307.59;4999938;28;19925;-82
2023/04/11 00:03:56;;;;;;;;;;;;;;;17.38;nan;101304.88;5002620;28;19922;-82
2023/04/11 00:06:25;;;;;;;;;;;;;;;17.32;nan;101298.69;5002783;28;19929;-82
2023/04/11 00:08:51;;;;;;;;;;;;;;;17.28;nan;101288.72;4997782;28;20028;-82
2023/04/11 00:11:16;;;;;;;;;;;;;;;17.24;nan;101284.94;4984061;28;20283;-82
2023/04/11 00:13:42;;;;;;;;;;;;;;;17.26;nan;101289.00;4999435;28;19975;-83
2023/04/11 00:16:08;;;;;;;;;;;;;;;17.30;nan;101284.63;5000965;28;19944;-82
2023/04/11 00:18:36;;;;;;;;;;;;;;;17.29;nan;101271.38;4997993;28;20346;-82
2023/04/11 00:21:02;;;;;;;;;;;;;;;17.27;nan;101263.53;4998981;28;19928;-82
2023/04/11 00:23:28;;;;;;;;;;;;;;;17.23;nan;101251.63;5003341;28;19917;-83
2023/04/11 00:25:53;;;;;;;;;;;;;;;17.26;nan;101250.28;5002280;28;19921;-82
2023/04/11 00:28:18;;;;;;;;;;;;;;;17.24;nan;101233.50;4999738;28;19991;-82
2023/04/11 00:30:44;;;;;;;;;;;;;;;17.22;nan;101234.56;4998778;28;20398;-82
2023/04/11 00:33:09;;;;;;;;;;;;;;;17.27;nan;101238.34;4997490;28;19932;-82
2023/04/11 00:35:36;;;;;;;;;;;;;;;17.27;nan;101227.50;5001884;28;20417;-82
2023/04/11 00:38:02;;;;;;;;;;;;;;;17.24;nan;101218.06;5000987;28;19922;-82
2023/04/11 00:40:28;;;;;;;;;;;;;;;17.29;nan;101217.22;5001287;28;20411;-82
2023/04/11 00:42:54;;;;;;;;;;;;;;;17.24;nan;101220.78;4999848;28;20016;-82
2023/04/11 00:45:19;;;;;;;;;;;;;;;17.20;nan;101215.06;5001153;28;19917;-82
2023/04/11 00:47:44;;;;;;;;;;;;;;;17.24;nan;101214.53;5000952;28;19936;-82
2023/04/11 00:50:12;;;;;;;;;;;;;;;17.22;nan;101203.97;4982602;28;19995;-82
2023/04/11 00:52:38;;;;;;;;;;;;;;;17.25;nan;101205.31;4997902;28;19925;-82
2023/04/11 00:55:05;;;;;;;;;;;;;;;17.22;nan;101188.53;4999760;28;20273;-82
2023/04/11 00:57:31;;;;;;;;;;;;;;;17.17;nan;101188.56;4998692;28;20410;-82
2023/04/11 00:59:57;;;;;;;;;;;;;;;17.18;nan;101200.22;5000792;28;19917;-83
2023/04/11 01:02:23;;;;;;;;;;;;;;;17.14;nan;101178.31;5002189;28;19932;-83
2023/04/11 01:04:49;;;;;;;;;;;;;;;17.17;nan;101180.44;4998278;28;19917;-83
2023/04/11 01:07:16;;;;;;;;;;;;;;;17.12;nan;101176.97;4998585;28;19926;-83
2023/04/11 01:09:42;;;;;;;;;;;;;;;17.15;nan;101171.78;5002354;28;20359;-82
2023/04/11 01:12:08;;;;;;;;;;;;;;;17.19;nan;101166.63;4982119;28;19932;-82
2023/04/11 01:14:33;;;;;;;;;;;;;;;17.16;nan;101169.91;4996140;28;19932;-82
2023/04/11 01:17:00;;;;;;;;;;;;;;;17.09;nan;101167.53;4981298;28;19940;-82
2023/04/11 01:19:26;;;;;;;;;;;;;;;17.06;nan;101156.44;4998432;28;19921;-82
2023/04/11 01:21:52;;;;;;;;;;;;;;;17.08;nan;101159.69;5002463;28;19925;-82
2023/04/11 01:24:18;;;;;;;;;;;;;;;17.11;nan;101149.09;5001497;28;20358;-82
2023/04/11 01:26:43;;;;;;;;;;;;;;;17.05;nan;101152.91;5001152;28;19956;-82
2023/04/11 01:29:09;;;;;;;;;;;;;;;17.05;nan;101144.78;4998970;28;20307;-82
2023/04/11 01:31:34;;;;;;;;;;;;;;;17.03;nan;101138.84;5000148;28;19922;-82
2023/04/11 01:34:00;;;;;;;;;;;;;;;16.98;nan;101138.09;4999398;28;20672;-82
2023/04/11 01:36:26;;;;;;;;;;;;;;;16.98;nan;101136.19;5002651;28;20429;-82
2023/04/11 01:38:51;;;;;;;;;;;;;;;16.95;nan;101134.03;5000833;28;19917;-82
2023/04/11 01:41:18;;;;;;;;;;;;;;;16.95;nan;101131.34;4998976;28;19917;-83
2023/04/11 01:43:44;;;;;;;;;;;;;;;16.96;nan;101126.72;4983257;28;19926;-82
2023/04/11 01:46:10;;;;;;;;;;;;;;;16.99;nan;101126.97;4998844;28;20383;-82
2023/04/11 01:48:36;;;;;;;;;;;;;;;16.98;nan;101122.66;4999471;28;20268;-82
2023/04/11 01:51:01;;;;;;;;;;;;;;;16.98;nan;101113.72;4999529;28;19992;-82
2023/04/11 01:53:27;;;;;;;;;;;;;;;16.94;nan;101102.66;4999242;28;19921;-82
2023/04/11 01:55:52;;;;;;;;;;;;;;;16.94;nan;101102.66;5001866;28;20215;-82
2023/04/11 01:58:17;;;;;;;;;;;;;;;16.95;nan;101106.16;5000423;28;19923;-82
2023/04/11 02:00:43;;;;;;;;;;;;;;;16.96;nan;101097.75;4998530;28;19925;-82
2023/04/11 02:03:08;;;;;;;;;;;;;;;17.00;nan;101095.28;5001102;28;19925;-82
2023/04/11 02:05:33;;;;;;;;;;;;;;;16.94;nan;101083.72;5001152;28;19922;-83
2023/04/11 02:07:59;;;;;;;;;;;;;;;16.97;nan;101082.31;4999983;28;19995;-82
2023/04/11 02:10:24;;;;;;;;;;;;;;;16.95;nan;101060.97;5001627;28;19925;-82
2023/04/11 02:12:49;;;;;;;;;;;;;;;16.92;nan;101046.09;5001298;28;19937;-82
2023/04/11 02:15:15;;;;;;;;;;;;;;;16.96;nan;101030.09;5002064;28;19928;-82
2023/04/11 02:17:43;;;;;;;;;;;;;;;16.92;nan;101016.31;5004103;28;19921;-82
2023/04/11 02:20:10;;;;;;;;;;;;;;;16.94;nan;101009.81;5003642;28;20057;-82
2023/04/11 02:22:35;;;;;;;;;;;;;;;16.87;nan;101007.44;5004825;28;20012;-82
2023/04/11 02:25:00;;;;;;;;;;;;;;;16.86;nan;100998.50;5006427;28;19925;-82
2023/04/11 02:27:26;;;;;;;;;;;;;;;16.90;nan;101006.88;5006013;28;19949;-82
2023/04/11 02:29:51;;;;;;;;;;;;;;;16.92;nan;101002.78;5002923;28;19921;-82
2023/04/11 02:32:16;;;;;;;;;;;;;;;16.93;nan;100992.78;5005748;28;19925;-82
2023/04/11 02:34:42;;;;;;;;;;;;;;;16.91;nan;100989.56;5004951;28;20173;-82
2023/04/11 02:37:07;;;;;;;;;;;;;;;16.87;nan;100978.47;5006318;28;21041;-82
2023/04/11 02:39:37;;;;;;;;;;;;;;;16.86;nan;100976.84;5025987;22;20181;-84
2023/04/11 02:42:05;;;;;;;;;;;;;;;16.81;nan;100978.81;5014277;28;19929;-84
2023/04/11 02:44:55;;;;;;;;;;;;;;;16.83;nan;100972.00;5009444;28;19917;-85
2023/04/11 02:47:24;;;;;;;;;;;;;;;16.77;nan;100964.22;5012574;28;19922;-85
2023/04/11 02:49:49;;;;;;;;;;;;;;;16.73;nan;100961.28;5008445;28;20426;-84
2023/04/11 02:52:16;;;;;;;;;;;;;;;16.73;nan;100961.28;5011256;28;19921;-84
2023/04/11 02:55:21;;;;;;;;;;;;;;;16.80;nan;100963.66;5009549;28;19917;-84
2023/04/11 02:57:49;;;;;;;;;;;;;;;16.84;nan;100957.38;5012363;28;19921;-84
2023/04/11 03:00:18;;;;;;;;;;;;;;;16.82;nan;100961.47;5009598;28;20352;-85
2023/04/11 03:02:45;;;;;;;;;;;;;;;16.79;nan;100945.81;5009923;28;21383;-86
2023/04/11 03:05:10;;;;;;;;;;;;;;;16.79;nan;100938.50;4990280;28;19924;-84
2023/04/11 03:07:37;;;;;;;;;;;;;;;16.77;nan;100937.16;5007138;28;20342;-84
2023/04/11 03:10:03;;;;;;;;;;;;;;;16.81;nan;100930.09;5009239;28;19929;-84
2023/04/11 03:12:28;;;;;;;;;;;;;;;16.85;nan;100931.94;5008116;28;20526;-84
2023/04/11 03:14:53;;;;;;;;;;;;;;;16.85;nan;100928.41;5011187;28;19971;-85
2023/04/11 03:17:25;;;;;;;;;;;;;;;16.85;nan;100926.53;5006883;28;19967;-85
2023/04/11 03:19:55;;;;;;;;;;;;;;;16.84;nan;100924.09;5009070;28;19972;-86
2023/04/11 03:22:22;;;;;;;;;;;;;;;16.83;nan;100914.38;5011407;28;19933;-84
2023/04/11 03:24:48;;;;;;;;;;;;;;;16.83;nan;100907.06;5013817;28;19917;-84
2023/04/11 03:27:14;;;;;;;;;;;;;;;16.84;nan;100902.47;5016349;28;19922;-84
2023/04/11 03:29:39;;;;;;;;;;;;;;;16.84;nan;100902.47;5011811;28;20367;-84
2023/04/11 03:32:05;;;;;;;;;;;;;;;16.83;nan;100900.84;5013229;28;20574;-85
2023/04/11 03:34:32;;;;;;;;;;;;;;;16.81;nan;100905.75;5012627;28;20435;-84
2023/04/11 03:37:04;;;;;;;;;;;;;;;16.83;nan;100900.84;5014984;28;19929;-86
2023/04/11 03:39:35;;;;;;;;;;;;;;;16.85;nan;100898.66;5010580;28;19952;-85
2023/04/11 03:42:03;;;;;;;;;;;;;;;16.80;nan;100893.31;5015824;28;19975;-85
2023/04/11 03:44:34;;;;;;;;;;;;;;;16.84;nan;100892.44;5009923;28;19929;-85
2023/04/11 03:47:27;;;;;;;;;;;;;;;16.80;nan;100887.91;5002693;28;20406;-85
2023/04/11 03:49:56;;;;;;;;;;;;;;;16.82;nan;100889.22;5009381;28;19918;-84
2023/04/11 03:52:23;;;;;;;;;;;;;;;16.86;nan;100889.44;5010855;28;20005;-84
2023/04/11 03:54:57;;;;;;;;;;;;;;;16.85;nan;100885.13;5012794;28;19921;-85
2023/04/11 03:57:25;;;;;;;;;;;;;;;16.80;nan;100879.78;5008054;28;20016;-85
2023/04/11 03:59:51;;;;;;;;;;;;;;;16.83;nan;100879.19;5009207;28;19929;-84
2023/04/11 04:02:16;;;;;;;;;;;;;;;16.79;nan;100880.88;5015524;28;19924;-84
2023/04/11 04:04:45;;;;;;;;;;;;;;;16.78;nan;100881.97;5012974;28;19913;-83
2023/04/11 04:07:11;;;;;;;;;;;;;;;16.78;nan;100871.13;5008002;28;20386;-83
2023/04/11 04:09:37;;;;;;;;;;;;;;;16.76;nan;100873.31;5005407;28;19917;-83
2023/04/11 04:12:02;;;;;;;;;;;;;;;16.77;nan;100872.22;5005266;28;20453;-83
2023/04/11 04:14:27;;;;;;;;;;;;;;;16.76;nan;100862.50;4984946;28;19922;-84
2023/04/11 04:16:53;;;;;;;;;;;;;;;16.76;nan;100866.03;5004421;28;19998;-85
2023/04/11 04:19:19;;;;;;;;;;;;;;;16.72;nan;100856.06;5007623;28;20224;-84
2023/04/11 04:21:44;;;;;;;;;;;;;;;16.66;nan;100867.97;5007863;28;19945;-84
2023/04/11 04:24:11;;;;;;;;;;;;;;;16.62;nan;100855.03;5009805;28;19917;-84
2023/04/11 04:26:37;;;;;;;;;;;;;;;16.61;nan;100858.00;5007493;28;19925;-84
2023/04/11 04:29:04;;;;;;;;;;;;;;;16.68;nan;100855.00;5009942;28;20084;-84
2023/04/11 04:31:32;;;;;;;;;;;;;;;16.63;nan;100853.94;5017411;28;20404;-84
2023/04/11 04:34:20;;;;;;;;;;;;;;;16.58;nan;100851.28;5011748;28;19932;-84
2023/04/11 04:36:46;;;;;;;;;;;;;;;16.58;nan;100859.41;5008891;28;19964;-84
2023/04/11 04:39:18;;;;;;;;;;;;;;;16.60;nan;100853.69;5005477;28;19948;-83
2023/04/11 04:41:44;;;;;;;;;;;;;;;16.54;nan;100850.25;5010577;28;19918;-83
2023/04/11 04:44:10;;;;;;;;;;;;;;;16.59;nan;100842.06;5009147;28;19928;-84
2023/04/11 04:46:35;;;;;;;;;;;;;;;16.58;nan;100839.66;5010255;28;19917;-85
2023/04/11 04:49:04;;;;;;;;;;;;;;;16.58;nan;100835.06;5008702;28;19917;-85
2023/04/11 04:51:30;;;;;;;;;;;;;;;16.53;nan;100828.91;5011035;28;19928;-84
2023/04/11 04:53:56;;;;;;;;;;;;;;;16.48;nan;100824.31;5010795;28;19922;-84
2023/04/11 04:56:22;;;;;;;;;;;;;;;16.46;nan;100821.09;5008826;28;20139;-83
2023/04/11 04:58:47;;;;;;;;;;;;;;;16.46;nan;100823.00;5012291;28;20354;-84
2023/04/11 05:01:12;;;;;;;;;;;;;;;16.51;nan;100829.16;5009691;28;20012;-84
2023/04/11 05:03:38;;;;;;;;;;;;;;;16.49;nan;100823.22;4993254;28;20303;-84
2023/04/11 05:06:05;;;;;;;;;;;;;;;16.46;nan;100821.09;5008824;28;19928;-84
2023/04/11 05:08:30;;;;;;;;;;;;;;;16.40;nan;100827.66;5009268;28;20121;-83
2023/04/11 05:10:55;;;;;;;;;;;;;;;16.32;nan;100826.34;5008416;28;19918;-84
2023/04/11 05:13:21;;;;;;;;;;;;;;;16.38;nan;100823.63;5008100;28;19932;-84
2023/04/11 05:15:50;;;;;;;;;;;;;;;16.37;nan;100814.72;5008273;28;20363;-84
2023/04/11 05:18:16;;;;;;;;;;;;;;;16.36;nan;100823.09;5006371;28;20493;-84
2023/04/11 05:20:41;;;;;;;;;;;;;;;16.34;nan;100812.59;5007649;28;20089;-84
2023/04/11 05:23:06;;;;;;;;;;;;;;;16.35;nan;100813.38;5004226;28;20009;-84
2023/04/11 05:25:32;;;;;;;;;;;;;;;16.33;nan;100816.34;5010075;28;19932;-84
2023/04/11 05:27:57;;;;;;;;;;;;;;;16.30;nan;100815.03;5005305;28;20395;-84
2023/04/11 05:30:22;;;;;;;;;;;;;;;16.27;nan;100817.50;5009370;28;20402;-84
2023/04/11 05:32:48;;;;;;;;;;;;;;;16.28;nan;100800.19;5009210;28;19926;-84
2023/04/11 05:35:13;;;;;;;;;;;;;;;16.29;nan;100805.31;5011812;28;19933;-84
2023/04/11 05:37:40;;;;;;;;;;;;;;;16.28;nan;100802.88;5010487;28;19929;-84
2023/04/11 05:40:07;;;;;;;;;;;;;;;16.32;nan;100807.44;5001855;28;20032;-85
2023/04/11 05:42:33;;;;;;;;;;;;;;;16.34;nan;100812.59;5004706;28;20435;-84
2023/04/11 05:44:58;;;;;;;;;;;;;;;16.36;nan;100805.00;5009470;28;19964;-85
2023/04/11 05:47:23;;;;;;;;;;;;;;;16.34;nan;100812.59;5005674;28;19980;-84
2023/04/11 05:49:49;;;;;;;;;;;;;;;16.38;nan;100815.53;5009045;28;19973;-85
2023/04/11 05:52:14;;;;;;;;;;;;;;;16.41;nan;100820.34;5008638;28;19929;-85
2023/04/11 05:54:40;;;;;;;;;;;;;;;16.39;nan;100814.44;5009575;28;19948;-84
2023/04/11 05:57:06;;;;;;;;;;;;;;;16.36;nan;100804.19;5012159;28;19971;-85
2023/04/11 05:59:33;;;;;;;;;;;;;;;16.34;nan;100807.19;5008422;28;19917;-84
2023/04/11 06:02:01;;;;;;;;;;;;;;;16.33;nan;100811.75;5012493;28;19924;-85
2023/04/11 06:04:42;;;;;;;;;;;;;;;16.37;nan;100812.00;4990126;28;20505;-84
2023/04/11 06:07:07;;;;;;;;;;;;;;;16.35;nan;100803.38;5007451;28;19928;-86
2023/04/11 06:09:33;;;;;;;;;;;;;;;16.38;nan;100802.00;5011238;28;19917;-85
2023/04/11 06:12:04;;;;;;;;;;;;;;;16.40;nan;100795.22;5007601;28;20465;-84
2023/04/11 06:14:29;;;;;;;;;;;;;;;16.46;nan;100802.16;5010126;28;19933;-84
2023/04/11 06:16:55;;;;;;;;;;;;;;;16.46;nan;100796.75;5009576;28;19917;-86
2023/04/11 06:19:20;;;;;;;;;;;;;;;16.48;nan;100791.88;5010028;28;20495;-84
2023/04/11 06:21:45;;;;;;;;;;;;;;;16.51;nan;100793.19;5006523;28;19917;-84
2023/04/11 06:24:11;;;;;;;;;;;;;;;16.60;nan;100797.69;5010036;28;19921;-84
2023/04/11 06:26:36;;;;;;;;;;;;;;;16.55;nan;100800.47;5010397;28;19925;-84
2023/04/11 06:29:03;;;;;;;;;;;;;;;16.52;nan;100803.75;5009466;28;19918;-85
2023/04/11 06:31:34;;;;;;;;;;;;;;;16.50;nan;100808.63;5009349;28;20402;-85
2023/04/11 06:34:00;;;;;;;;;;;;;;;16.45;nan;100805.97;5009037;28;19932;-86
2023/04/11 06:36:28;;;;;;;;;;;;;;;16.48;nan;100796.47;5006325;28;20649;-85
2023/04/11 06:38:54;;;;;;;;;;;;;;;16.45;nan;100802.47;5002099;28;19983;-86
2023/04/11 06:41:19;;;;;;;;;;;;;;;16.44;nan;100798.16;5007911;28;19929;-85
2023/04/11 06:43:45;;;;;;;;;;;;;;;16.37;nan;100800.38;5009797;28;19933;-86
2023/04/11 06:46:49;;;;;;;;;;;;;;;16.31;nan;100794.19;5009233;28;19922;-85
2023/04/11 06:50:01;;;;;;;;;;;;;;;16.24;nan;100801.84;4983292;28;20023;-86
2023/04/11 06:55:31;;;;;;;;;;;;;;;16.13;nan;100832.75;4889475;29;20520;-86
2023/04/11 06:58:30;;;;;;;;;;;;;;;16.05;nan;100817.16;4886378;29;19934;-86
2023/04/11 07:01:01;;;;;;;;;;;;;;;15.99;nan;100800.19;4887082;29;20072;-87
2023/04/11 07:03:29;;;;;;;;;;;;;;;16.02;nan;100789.59;4912739;28;19917;-88
2023/04/11 07:05:57;;;;;;;;;;;;;;;16.11;nan;100791.69;4995805;28;19921;-88
2023/04/11 07:08:23;;;;;;;;;;;;;;;16.18;nan;100794.88;5008656;28;19917;-88
2023/04/11 07:10:51;;;;;;;;;;;;;;;16.06;nan;100805.25;5007212;28;19974;-88
2023/04/11 07:13:17;;;;;;;;;;;;;;;15.97;nan;100803.13;5007951;28;19964;-88
2023/04/11 07:15:42;;;;;;;;;;;;;;;15.90;nan;100807.25;5007189;28;19945;-88
2023/04/11 07:18:07;;;;;;;;;;;;;;;15.88;nan;100810.25;5006767;28;20479;-88
2023/04/11 07:20:33;;;;;;;;;;;;;;;15.87;nan;100805.94;5007390;28;20375;-89
2023/04/11 07:22:58;;;;;;;;;;;;;;;15.82;nan;100799.78;5008389;28;19922;-89
2023/04/11 07:25:29;;;;;;;;;;;;;;;15.76;nan;100808.97;5009706;28;20187;-89
2023/04/11 07:27:59;;;;;;;;;;;;;;;15.71;nan;100815.22;5008063;28;19987;-89
2023/04/11 07:30:24;;;;;;;;;;;;;;;15.71;nan;100826.03;5009167;28;19927;-88
2023/04/11 07:32:49;;;;;;;;;;;;;;;15.64;nan;100825.56;5007206;28;19929;-88
2023/04/11 07:35:15;;;;;;;;;;;;;;;15.57;nan;100833.09;5007693;28;19950;-89
2023/04/11 07:37:44;;;;;;;;;;;;;;;15.58;nan;100827.44;5010024;28;19921;-89
2023/04/11 07:40:10;;;;;;;;;;;;;;;15.50;nan;100829.91;5011756;28;19925;-89
2023/04/11 07:42:45;;;;;;;;;;;;;;;15.44;nan;100826.44;5009224;28;20000;-89
2023/04/11 07:45:15;;;;;;;;;;;;;;;15.45;nan;100828.06;5008331;28;19956;-90
2023/04/11 07:47:40;;;;;;;;;;;;;;;15.48;nan;100826.69;5000006;28;19952;-89
2023/04/11 07:50:06;;;;;;;;;;;;;;;15.50;nan;100830.72;5002598;28;19924;-89
2023/04/11 07:52:32;;;;;;;;;;;;;;;15.55;nan;100829.88;5008848;28;19925;-89
2023/04/11 07:55:05;;;;;;;;;;;;;;;15.50;nan;100825.31;5002984;28;19921;-89
2023/04/11 07:57:43;;;;;;;;;;;;;;;;;;;;;
2023/04/11 08:00:20;;;;;;;;;;;;;;;15.42;nan;100828.59;5008486;28;19921;-89
2023/04/11 08:02:45;;;;;;;;;;;;;;;15.41;nan;100830.47;5008753;28;20362;-90
2023/04/11 08:05:11;;;;;;;;;;;;;;;15.35;nan;100837.00;5010075;28;19956;-89
2023/04/11 08:07:36;;;;;;;;;;;;;;;15.35;nan;100837.00;5007105;28;19964;-90
2023/04/11 08:10:02;;;;;;;;;;;;;;;15.41;nan;100835.06;5007598;28;19971;-90
2023/04/11 08:12:32;;;;;;;;;;;;;;;15.47;nan;100830.47;5010280;28;19933;-90
2023/04/11 08:15:01;;;;;;;;;;;;;;;15.50;nan;100835.31;5008061;28;19917;-89
2023/04/11 08:17:27;;;;;;;;;;;;;;;15.59;nan;100828.25;4986803;28;19946;-90
2023/04/11 08:19:58;;;;;;;;;;;;;;;15.63;nan;100840.16;5006196;28;19980;-90
2023/04/11 08:22:44;;;;;;;;;;;;;;;15.58;nan;100840.13;5007099;28;19925;-89
2023/04/11 08:25:10;;;;;;;;;;;;;;;15.61;nan;100839.59;5007695;28;19921;-90
2023/04/11 08:27:48;;;;;;;;;;;;;;;15.58;nan;100840.13;5014391;28;19958;-89
2023/04/11 08:30:14;;;;;;;;;;;;;;;15.60;nan;100837.97;5007818;28;19921;-90
2023/04/11 08:32:41;;;;;;;;;;;;;;;15.57;nan;100841.22;5013425;28;19929;-90
2023/04/11 08:35:06;;;;;;;;;;;;;;;15.49;nan;100831.81;5012379;28;19923;-90
2023/04/11 08:37:32;;;;;;;;;;;;;;;15.45;nan;100832.66;5010850;28;20152;-90
2023/04/11 08:39:57;;;;;;;;;;;;;;;15.54;nan;100828.25;5011267;28;19922;-89
2023/04/11 08:42:26;;;;;;;;;;;;;;;15.55;nan;100833.38;5008488;28;20012;-89
2023/04/11 08:45:04;;;;;;;;;;;;;;;15.65;nan;100822.56;5005827;28;20395;-89
2023/04/11 08:47:32;;;;;;;;;;;;;;;15.72;nan;100819.53;5006036;28;20338;-89
2023/04/11 08:49:58;;;;;;;;;;;;;;;15.80;nan;100823.53;5009861;28;20501;-87
2023/04/11 08:52:29;;;;;;;;;;;;;;;15.82;nan;100822.19;5003188;28;19929;-89
2023/04/11 08:54:54;;;;;;;;;;;;;;;15.86;nan;100828.63;5004055;28;19977;-88
2023/04/11 08:57:25;;;;;;;;;;;;;;;15.87;nan;100815.94;5009597;28;20044;-88
2023/04/11 08:59:51;;;;;;;;;;;;;;;15.93;nan;100810.19;5006799;28;20427;-88
2023/04/11 09:02:19;;;;;;;;;;;;;;;15.99;nan;100816.41;5006334;28;19937;-89
2023/04/11 09:04:46;;;;;;;;;;;;;;;15.99;nan;100817.19;5006555;28;19929;-87
2023/04/11 09:07:12;;;;;;;;;;;;;;;15.98;nan;100820.19;5004919;28;20362;-89
2023/04/11 09:09:40;;;;;;;;;;;;;;;15.98;nan;100818.28;5007873;28;20394;-88
2023/04/11 09:12:09;;;;;;;;;;;;;;;16.06;nan;100827.69;5003764;28;19928;-88
2023/04/11 09:14:34;;;;;;;;;;;;;;;16.07;nan;100817.66;5005312;28;19928;-88
2023/04/11 09:17:01;;;;;;;;;;;;;;;16.05;nan;100822.56;5007052;28;19918;-88
2023/04/11 09:19:28;;;;;;;;;;;;;;;16.01;nan;100820.41;5007366;28;19921;-89
2023/04/11 09:21:55;;;;;;;;;;;;;;;16.01;nan;100831.22;5004562;28;20542;-87
2023/04/11 09:24:21;;;;;;;;;;;;;;;16.03;nan;100830.94;5007142;28;20216;-88
2023/04/11 09:26:49;;;;;;;;;;;;;;;16.03;nan;100830.94;5007018;28;19957;-88
2023/04/11 09:29:34;;;;;;;;;;;;;;;16.05;nan;100836.06;5007123;28;20024;-88
2023/04/11 09:32:00;;;;;;;;;;;;;;;16.01;nan;100828.53;5001510;28;19925;-88
2023/04/11 09:34:28;;;;;;;;;;;;;;;16.02;nan;100840.16;5004097;28;20502;-88
2023/04/11 09:36:54;;;;;;;;;;;;;;;16.09;nan;100840.63;5003519;28;19925;-89
2023/04/11 09:39:19;;;;;;;;;;;;;;;16.21;nan;100842.97;5004576;28;20324;-89
2023/04/11 09:41:47;;;;;;;;;;;;;;;16.15;nan;100835.97;5004212;28;20012;-89
2023/04/11 09:44:13;;;;;;;;;;;;;;;16.12;nan;100841.94;5007380;28;19925;-88
2023/04/11 09:46:57;;;;;;;;;;;;;;;16.19;nan;100850.56;5005822;28;20343;-88
2023/04/11 09:49:23;;;;;;;;;;;;;;;16.11;nan;100837.63;5012571;28;19918;-88
2023/04/11 09:51:50;;;;;;;;;;;;;;;16.06;nan;100841.19;5007659;28;19979;-89
2023/04/11 09:54:15;;;;;;;;;;;;;;;16.11;nan;100843.03;5006402;28;19929;-88
2023/04/11 09:56:41;;;;;;;;;;;;;;;16.13;nan;100838.16;5011969;28;19921;-89
2023/04/11 09:59:07;;;;;;;;;;;;;;;16.23;nan;100843.50;5004708;28;19979;-87
2023/04/11 10:01:32;;;;;;;;;;;;;;;16.29;nan;100832.34;4989457;28;19931;-89
2023/04/11 10:04:01;;;;;;;;;;;;;;;16.37;nan;100839.03;5005960;28;19917;-89
2023/04/11 10:06:30;;;;;;;;;;;;;;;16.36;nan;100832.03;5008466;28;19924;-89
2023/04/11 10:09:04;;;;;;;;;;;;;;;16.44;nan;100830.59;5008698;28;19918;-88
2023/04/11 10:11:31;;;;;;;;;;;;;;;16.50;nan;100822.13;5006808;28;20063;-89
2023/04/11 10:14:00;;;;;;;;;;;;;;;16.57;nan;100836.16;5009640;28;19925;-89
2023/04/11 10:16:34;;;;;;;;;;;;;;;16.58;nan;100839.66;5005223;28;19918;-88
2023/04/11 10:19:03;;;;;;;;;;;;;;;16.57;nan;100835.34;5003479;28;19917;-88
2023/04/11 10:21:29;;;;;;;;;;;;;;;16.59;nan;100831.25;5003735;28;19921;-88
2023/04/11 10:24:13;;;;;;;;;;;;;;;16.55;nan;100834.81;5007508;28;19927;-87
2023/04/11 10:26:57;;;;;;;;;;;;;;;16.57;nan;100828.03;5006710;28;19921;-89
2023/04/11 10:29:28;;;;;;;;;;;;;;;16.56;nan;100826.41;5009814;28;19917;-88
2023/04/11 10:32:12;;;;;;;;;;;;;;;16.61;nan;100833.66;5003970;28;19924;-88
2023/04/11 10:34:40;;;;;;;;;;;;;;;16.65;nan;100834.72;5008039;28;19930;-88
2023/04/11 10:37:07;;;;;;;;;;;;;;;16.69;nan;100834.97;4985702;28;20552;-88
2023/04/11 10:39:51;;;;;;;;;;;;;;;16.76;nan;100832.75;5008303;28;19917;-88
2023/04/11 10:42:26;;;;;;;;;;;;;;;16.85;nan;100833.72;5005251;28;20082;-87
2023/04/11 10:45:18;;;;;;;;;;;;;;;17.05;nan;100836.19;5010812;28;20299;-87
2023/04/11 10:47:56;;;;;;;;;;;;;;;17.03;nan;100834.88;5001952;28;19972;-87
2023/04/11 10:50:24;;;;;;;;;;;;;;;17.08;nan;100840.25;5007408;28;19953;-88
2023/04/11 10:52:50;;;;;;;;;;;;;;;17.15;nan;100844.19;5007079;28;19936;-87
2023/04/11 10:55:16;;;;;;;;;;;;;;;17.21;nan;100840.31;5011387;28;19920;-88
2023/04/11 10:58:00;;;;;;;;;;;;;;;17.38;nan;100836.31;5009355;28;19921;-87
2023/04/11 11:00:26;;;;;;;;;;;;;;;17.35;nan;100834.19;5009683;28;20004;-87
2023/04/11 11:02:52;;;;;;;;;;;;;;;17.42;nan;100837.38;5006068;28;19917;-87
2023/04/11 11:05:19;;;;;;;;;;;;;;;17.47;nan;100838.09;5014172;28;19928;-87
2023/04/11 11:07:45;;;;;;;;;;;;;;;17.40;nan;100844.97;5004967;28;19953;-86
2023/04/11 11:10:11;;;;;;;;;;;;;;;17.42;nan;100829.25;5005135;28;19917;-87
2023/04/11 11:12:39;;;;;;;;;;;;;;;17.48;nan;100834.28;5008803;28;19947;-87
2023/04/11 11:15:11;;;;;;;;;;;;;;;17.51;nan;100832.91;4986680;28;19921;-86
2023/04/11 11:17:40;;;;;;;;;;;;;;;17.54;nan;100824.19;5009543;28;19921;-87
2023/04/11 11:20:08;;;;;;;;;;;;;;;17.62;nan;100826.25;5005866;28;19933;-86
2023/04/11 11:22:34;;;;;;;;;;;;;;;17.71;nan;100840.78;5005424;28;19921;-86
2023/04/11 11:25:09;;;;;;;;;;;;;;;17.84;nan;100835.72;5009840;28;19932;-87
2023/04/11 11:27:37;;;;;;;;;;;;;;;17.78;nan;100837.72;5007922;28;19925;-86
2023/04/11 11:30:09;;;;;;;;;;;;;;;17.73;nan;100825.03;5007761;28;19925;-87
2023/04/11 11:32:35;;;;;;;;;;;;;;;17.78;nan;100824.97;5007796;28;20294;-87
2023/04/11 11:35:11;;;;;;;;;;;;;;;17.92;nan;100829.63;5007496;28;19917;-87
2023/04/11 11:37:41;;;;;;;;;;;;;;;18.12;nan;100834.72;5007791;28;20004;-86
2023/04/11 11:40:12;;;;;;;;;;;;;;;18.19;nan;100829.72;4999495;28;20000;-86
2023/04/11 11:42:40;;;;;;;;;;;;;;;18.31;nan;100832.78;5006474;28;19918;-86
2023/04/11 11:45:16;;;;;;;;;;;;;;;18.29;nan;100823.31;5008286;28;19917;-86
2023/04/11 11:47:42;;;;;;;;;;;;;;;18.31;nan;100835.50;5005935;28;19921;-86
2023/04/11 11:50:07;;;;;;;;;;;;;;;18.32;nan;100831.69;5007369;28;19917;-86
2023/04/11 11:52:35;;;;;;;;;;;;;;;18.39;nan;100837.53;5001347;28;19932;-86
2023/04/11 11:55:02;;;;;;;;;;;;;;;18.50;nan;100827.31;5003693;28;20367;-86
2023/04/11 11:57:30;;;;;;;;;;;;;;;18.72;nan;100834.78;5004757;28;20381;-85
2023/04/11 11:59:55;;;;;;;;;;;;;;;18.83;nan;100838.09;5005044;28;19987;-85
2023/04/11 12:02:27;;;;;;;;;;;;;;;18.89;nan;100837.72;5005967;28;20177;-86
2023/04/11 12:04:58;;;;;;;;;;;;;;;18.93;nan;100841.44;5002243;28;19925;-85
2023/04/11 12:07:24;;;;;;;;;;;;;;;18.83;nan;100838.91;5006126;28;19921;-85
2023/04/11 12:09:54;;;;;;;;;;;;;;;18.83;nan;100838.91;5003654;28;19979;-86
2023/04/11 12:12:20;;;;;;;;;;;;;;;18.83;nan;100838.91;5012397;28;19925;-85
2023/04/11 12:14:54;;;;;;;;;;;;;;;18.77;nan;100840.13;5010417;28;20540;-85
2023/04/11 12:17:19;;;;;;;;;;;;;;;18.66;nan;100844.91;5002060;28;20411;-85
2023/04/11 12:19:45;;;;;;;;;;;;;;;18.70;nan;100837.00;5001319;28;19948;-86
2023/04/11 12:22:10;;;;;;;;;;;;;;;18.73;nan;100830.97;5005679;28;19921;-85
2023/04/11 12:24:38;;;;;;;;;;;;;;;18.82;nan;100837.31;5010745;28;20402;-86
2023/04/11 12:27:04;;;;;;;;;;;;;;;18.92;nan;100852.59;5005728;28;19925;-86
2023/04/11 12:29:30;;;;;;;;;;;;;;;18.90;nan;100842.03;5003421;28;20522;-84
2023/04/11 12:31:55;;;;;;;;;;;;;;;18.94;nan;100844.97;5005824;28;19929;-85
2023/04/11 12:34:21;;;;;;;;;;;;;;;19.01;nan;100856.22;4999626;28;20376;-85
2023/04/11 12:36:46;;;;;;;;;;;;;;;19.07;nan;100862.38;4983136;28;20758;-84
2023/04/11 12:39:13;;;;;;;;;;;;;;;19.09;nan;100865.59;5003118;28;20461;-85
2023/04/11 12:41:39;;;;;;;;;;;;;;;19.00;nan;100860.03;5004063;28;19948;-85
2023/04/11 12:44:04;;;;;;;;;;;;;;;19.04;nan;100858.34;5007761;28;19974;-85
2023/04/11 12:46:29;;;;;;;;;;;;;;;19.11;nan;100860.66;4996236;28;19925;-84
2023/04/11 12:48:55;;;;;;;;;;;;;;;19.12;nan;100854.09;5000235;28;19921;-85
2023/04/11 12:51:20;;;;;;;;;;;;;;;19.17;nan;100859.44;5002757;28;19957;-83
2023/04/11 12:53:45;;;;;;;;;;;;;;;19.09;nan;100854.72;4995461;28;19937;-85
2023/04/11 12:56:11;;;;;;;;;;;;;;;18.98;nan;100865.78;4998358;28;19926;-84
2023/04/11 12:58:36;;;;;;;;;;;;;;;18.89;nan;100854.00;4991690;28;20952;-84
2023/04/11 13:01:04;;;;;;;;;;;;;;;18.81;nan;100856.59;4997594;28;20032;-85
2023/04/11 13:03:29;;;;;;;;;;;;;;;18.79;nan;100854.19;4981770;28;20686;-85
2023/04/11 13:05:55;;;;;;;;;;;;;;;18.89;nan;100854.00;5004501;28;19956;-85